sensor_id;sensor_type;location;lat;lon;timestamp;temperature;humidity
20416;DHT22;10367;52.202;5.996;2022-09-16T00:01:17;11.80;99.90
20416;DHT22;10367;52.202;5.996;2022-09-16T00:03:46;11.80;99.90
20416;DHT22;10367;52.202;5.996;2022-09-16T00:06:19;11.80;99.90
20416;DHT22;10367;52.202;5.996;2022-09-16T00:08:48;11.90;99.90
20416;DHT22;10367;52.202;5.996;2022-09-16T00:11:19;11.90;99.90
20416;DHT22;10367;52.202;5.996;2022-09-16T00:13:47;11.90;99.90
20416;DHT22;10367;52.202;5.996;2022-09-16T00:16:18;11.90;99.90
20416;DHT22;10367;52.202;5.996;2022-09-16T00:18:48;11.90;99.90
20416;DHT22;10367;52.202;5.996;2022-09-16T00:21:16;11.90;99.90
20416;DHT22;10367;52.202;5.996;2022-09-16T00:23:45;11.80;99.90
20416;DHT22;10367;52.202;5.996;2022-09-16T00:26:14;11.80;99.90
20416;DHT22;10367;52.202;5.996;2022-09-16T00:28:46;11.80;99.90
20416;DHT22;10367;52.202;5.996;2022-09-16T00:31:15;11.80;99.90
20416;DHT22;10367;52.202;5.996;2022-09-16T00:33:44;11.90;99.90
20416;DHT22;10367;52.202;5.996;2022-09-16T00:36:15;11.90;99.90
20416;DHT22;10367;52.202;5.996;2022-09-16T00:38:44;11.90;99.90
20416;DHT22;10367;52.202;5.996;2022-09-16T00:41:16;11.90;99.90
20416;DHT22;10367;52.202;5.996;2022-09-16T00:43:53;11.90;99.90
20416;DHT22;10367;52.202;5.996;2022-09-16T00:46:27;11.90;99.90
20416;DHT22;10367;52.202;5.996;2022-09-16T00:49:02;11.90;99.90
20416;DHT22;10367;52.202;5.996;2022-09-16T00:51:31;11.80;99.90
20416;DHT22;10367;52.202;5.996;2022-09-16T00:54:01;11.80;99.90
20416;DHT22;10367;52.202;5.996;2022-09-16T00:56:35;11.90;99.90
20416;DHT22;10367;52.202;5.996;2022-09-16T00:59:09;11.80;99.90
20416;DHT22;10367;52.202;5.996;2022-09-16T01:01:42;11.90;99.90
20416;DHT22;10367;52.202;5.996;2022-09-16T01:04:14;11.80;99.90
20416;DHT22;10367;52.202;5.996;2022-09-16T01:06:44;11.90;99.90
20416;DHT22;10367;52.202;5.996;2022-09-16T01:09:12;11.90;99.90
20416;DHT22;10367;52.202;5.996;2022-09-16T01:11:41;11.80;99.90
20416;DHT22;10367;52.202;5.996;2022-09-16T01:14:11;11.80;99.90
20416;DHT22;10367;52.202;5.996;2022-09-16T01:17:02;11.80;99.90
20416;DHT22;10367;52.202;5.996;2022-09-16T01:19:47;11.80;99.90
20416;DHT22;10367;52.202;5.996;2022-09-16T01:22:35;11.70;99.90
20416;DHT22;10367;52.202;5.996;2022-09-16T01:25:13;11.70;99.90
20416;DHT22;10367;52.202;5.996;2022-09-16T01:30:54;11.50;99.90
20416;DHT22;10367;52.202;5.996;2022-09-16T01:33:33;11.40;99.90
20416;DHT22;10367;52.202;5.996;2022-09-16T01:39:11;11.30;99.90
20416;DHT22;10367;52.202;5.996;2022-09-16T01:41:51;11.30;99.90
20416;DHT22;10367;52.202;5.996;2022-09-16T01:44:28;11.30;99.90
20416;DHT22;10367;52.202;5.996;2022-09-16T01:47:04;11.20;99.90
20416;DHT22;10367;52.202;5.996;2022-09-16T01:49:40;11.20;99.90
20416;DHT22;10367;52.202;5.996;2022-09-16T01:52:19;11.20;99.90
20416;DHT22;10367;52.202;5.996;2022-09-16T01:54:55;11.20;99.90
20416;DHT22;10367;52.202;5.996;2022-09-16T01:57:30;11.30;99.90
20416;DHT22;10367;52.202;5.996;2022-09-16T02:00:04;11.30;99.90
20416;DHT22;10367;52.202;5.996;2022-09-16T02:02:38;11.30;99.90
20416;DHT22;10367;52.202;5.996;2022-09-16T02:05:13;11.40;99.90
20416;DHT22;10367;52.202;5.996;2022-09-16T02:07:46;11.40;99.90
20416;DHT22;10367;52.202;5.996;2022-09-16T02:10:22;11.40;99.90
20416;DHT22;10367;52.202;5.996;2022-09-16T02:12:55;11.40;99.90
20416;DHT22;10367;52.202;5.996;2022-09-16T02:15:27;11.40;99.90
20416;DHT22;10367;52.202;5.996;2022-09-16T02:18:01;11.40;99.90
20416;DHT22;10367;52.202;5.996;2022-09-16T02:20:35;11.50;99.90
20416;DHT22;10367;52.202;5.996;2022-09-16T02:23:08;11.50;99.90
20416;DHT22;10367;52.202;5.996;2022-09-16T02:25:39;11.50;99.90
20416;DHT22;10367;52.202;5.996;2022-09-16T02:28:12;11.50;99.90
20416;DHT22;10367;52.202;5.996;2022-09-16T02:30:46;11.50;99.90
20416;DHT22;10367;52.202;5.996;2022-09-16T02:33:18;11.60;99.90
20416;DHT22;10367;52.202;5.996;2022-09-16T02:35:51;11.60;99.90
20416;DHT22;10367;52.202;5.996;2022-09-16T02:38:24;11.60;99.90
20416;DHT22;10367;52.202;5.996;2022-09-16T02:40:55;11.70;99.90
20416;DHT22;10367;52.202;5.996;2022-09-16T02:43:25;11.70;99.90
20416;DHT22;10367;52.202;5.996;2022-09-16T02:46:02;11.70;99.90
20416;DHT22;10367;52.202;5.996;2022-09-16T02:48:42;11.70;99.90
20416;DHT22;10367;52.202;5.996;2022-09-16T02:51:20;11.80;99.90
20416;DHT22;10367;52.202;5.996;2022-09-16T02:53:55;11.70;99.90
20416;DHT22;10367;52.202;5.996;2022-09-16T02:56:29;11.70;99.90
20416;DHT22;10367;52.202;5.996;2022-09-16T02:59:00;11.70;99.90
20416;DHT22;10367;52.202;5.996;2022-09-16T03:01:32;11.70;99.90
20416;DHT22;10367;52.202;5.996;2022-09-16T03:04:02;11.70;99.90
20416;DHT22;10367;52.202;5.996;2022-09-16T03:06:31;11.70;99.90
20416;DHT22;10367;52.202;5.996;2022-09-16T03:09:06;11.60;99.90
20416;DHT22;10367;52.202;5.996;2022-09-16T03:12:03;11.60;99.90
20416;DHT22;10367;52.202;5.996;2022-09-16T03:17:42;11.50;99.90
20416;DHT22;10367;52.202;5.996;2022-09-16T03:20:21;11.50;99.90
20416;DHT22;10367;52.202;5.996;2022-09-16T03:23:01;11.50;99.90
20416;DHT22;10367;52.202;5.996;2022-09-16T03:25:38;11.50;99.90
20416;DHT22;10367;52.202;5.996;2022-09-16T03:28:12;11.40;99.90
20416;DHT22;10367;52.202;5.996;2022-09-16T03:30:49;11.40;99.90
20416;DHT22;10367;52.202;5.996;2022-09-16T03:33:24;11.40;99.90
20416;DHT22;10367;52.202;5.996;2022-09-16T03:35:57;11.40;99.90
20416;DHT22;10367;52.202;5.996;2022-09-16T03:38:27;11.40;99.90
20416;DHT22;10367;52.202;5.996;2022-09-16T03:40:56;11.40;99.90
20416;DHT22;10367;52.202;5.996;2022-09-16T03:43:25;11.40;99.90
20416;DHT22;10367;52.202;5.996;2022-09-16T03:45:54;11.40;99.90
20416;DHT22;10367;52.202;5.996;2022-09-16T03:48:22;11.50;99.90
20416;DHT22;10367;52.202;5.996;2022-09-16T03:50:51;11.40;99.90
20416;DHT22;10367;52.202;5.996;2022-09-16T03:53:21;11.40;99.90
20416;DHT22;10367;52.202;5.996;2022-09-16T03:55:49;11.40;99.90
20416;DHT22;10367;52.202;5.996;2022-09-16T03:58:18;11.50;99.90
20416;DHT22;10367;52.202;5.996;2022-09-16T04:00:49;11.40;99.90
20416;DHT22;10367;52.202;5.996;2022-09-16T04:03:18;11.50;99.90
20416;DHT22;10367;52.202;5.996;2022-09-16T04:05:51;11.50;99.90
20416;DHT22;10367;52.202;5.996;2022-09-16T04:08:22;11.50;99.90
20416;DHT22;10367;52.202;5.996;2022-09-16T04:10:54;11.40;99.90
20416;DHT22;10367;52.202;5.996;2022-09-16T04:13:23;11.40;99.90
20416;DHT22;10367;52.202;5.996;2022-09-16T04:15:51;11.40;99.90
20416;DHT22;10367;52.202;5.996;2022-09-16T04:18:20;11.30;99.90
20416;DHT22;10367;52.202;5.996;2022-09-16T04:20:49;11.20;99.90
20416;DHT22;10367;52.202;5.996;2022-09-16T04:23:18;11.20;99.90
20416;DHT22;10367;52.202;5.996;2022-09-16T04:25:54;11.10;99.90
20416;DHT22;10367;52.202;5.996;2022-09-16T04:28:23;11.10;99.90
20416;DHT22;10367;52.202;5.996;2022-09-16T04:30:52;11.00;99.90
20416;DHT22;10367;52.202;5.996;2022-09-16T04:33:20;11.00;99.90
20416;DHT22;10367;52.202;5.996;2022-09-16T04:35:49;10.90;99.90
20416;DHT22;10367;52.202;5.996;2022-09-16T04:38:17;10.80;99.90
20416;DHT22;10367;52.202;5.996;2022-09-16T04:40:46;10.80;99.90
20416;DHT22;10367;52.202;5.996;2022-09-16T04:43:16;10.80;99.90
20416;DHT22;10367;52.202;5.996;2022-09-16T04:45:44;10.80;99.90
20416;DHT22;10367;52.202;5.996;2022-09-16T04:48:13;10.70;99.90
20416;DHT22;10367;52.202;5.996;2022-09-16T04:50:43;10.70;99.90
20416;DHT22;10367;52.202;5.996;2022-09-16T04:53:12;10.70;99.90
20416;DHT22;10367;52.202;5.996;2022-09-16T04:55:40;10.60;99.90
20416;DHT22;10367;52.202;5.996;2022-09-16T04:58:09;10.60;99.90
20416;DHT22;10367;52.202;5.996;2022-09-16T05:00:39;10.60;99.90
20416;DHT22;10367;52.202;5.996;2022-09-16T05:03:08;10.60;99.90
20416;DHT22;10367;52.202;5.996;2022-09-16T05:05:36;10.60;99.90
20416;DHT22;10367;52.202;5.996;2022-09-16T05:08:05;10.70;99.90
20416;DHT22;10367;52.202;5.996;2022-09-16T05:10:34;10.70;99.90
20416;DHT22;10367;52.202;5.996;2022-09-16T05:13:02;10.70;99.90
20416;DHT22;10367;52.202;5.996;2022-09-16T05:15:32;10.70;99.90
20416;DHT22;10367;52.202;5.996;2022-09-16T05:18:02;10.60;99.90
20416;DHT22;10367;52.202;5.996;2022-09-16T05:20:31;10.50;99.90
20416;DHT22;10367;52.202;5.996;2022-09-16T05:23:00;10.50;99.90
20416;DHT22;10367;52.202;5.996;2022-09-16T05:25:28;10.50;99.90
20416;DHT22;10367;52.202;5.996;2022-09-16T05:27:57;10.50;99.90
20416;DHT22;10367;52.202;5.996;2022-09-16T05:30:27;10.40;99.90
20416;DHT22;10367;52.202;5.996;2022-09-16T05:32:56;10.40;99.90
20416;DHT22;10367;52.202;5.996;2022-09-16T05:35:27;10.40;99.90
20416;DHT22;10367;52.202;5.996;2022-09-16T05:37:56;10.40;99.90
20416;DHT22;10367;52.202;5.996;2022-09-16T05:40:25;10.40;99.90
20416;DHT22;10367;52.202;5.996;2022-09-16T05:42:55;10.40;99.90
20416;DHT22;10367;52.202;5.996;2022-09-16T05:45:24;10.40;99.90
20416;DHT22;10367;52.202;5.996;2022-09-16T05:47:58;10.40;99.90
20416;DHT22;10367;52.202;5.996;2022-09-16T05:50:28;10.40;99.90
20416;DHT22;10367;52.202;5.996;2022-09-16T05:52:57;10.40;99.90
20416;DHT22;10367;52.202;5.996;2022-09-16T05:55:26;10.40;99.90
20416;DHT22;10367;52.202;5.996;2022-09-16T05:57:54;10.40;99.90
20416;DHT22;10367;52.202;5.996;2022-09-16T06:00:23;10.40;99.90
20416;DHT22;10367;52.202;5.996;2022-09-16T06:02:51;10.40;99.90
20416;DHT22;10367;52.202;5.996;2022-09-16T06:05:20;10.50;99.90
20416;DHT22;10367;52.202;5.996;2022-09-16T06:07:50;10.50;99.90
20416;DHT22;10367;52.202;5.996;2022-09-16T06:10:23;10.60;99.90
20416;DHT22;10367;52.202;5.996;2022-09-16T06:12:52;10.60;99.90
20416;DHT22;10367;52.202;5.996;2022-09-16T06:15:22;10.50;99.90
20416;DHT22;10367;52.202;5.996;2022-09-16T06:17:50;10.60;99.90
20416;DHT22;10367;52.202;5.996;2022-09-16T06:20:19;10.60;99.90
20416;DHT22;10367;52.202;5.996;2022-09-16T06:22:49;10.60;99.90
20416;DHT22;10367;52.202;5.996;2022-09-16T06:25:19;10.60;99.90
20416;DHT22;10367;52.202;5.996;2022-09-16T06:27:47;10.60;99.90
20416;DHT22;10367;52.202;5.996;2022-09-16T06:30:16;10.60;99.90
20416;DHT22;10367;52.202;5.996;2022-09-16T06:32:45;10.60;99.90
20416;DHT22;10367;52.202;5.996;2022-09-16T06:35:13;10.70;99.90
20416;DHT22;10367;52.202;5.996;2022-09-16T06:37:42;10.70;99.90
20416;DHT22;10367;52.202;5.996;2022-09-16T06:40:12;10.70;99.90
20416;DHT22;10367;52.202;5.996;2022-09-16T06:42:41;10.80;99.90
20416;DHT22;10367;52.202;5.996;2022-09-16T06:45:10;10.80;99.90
20416;DHT22;10367;52.202;5.996;2022-09-16T06:47:38;10.90;99.90
20416;DHT22;10367;52.202;5.996;2022-09-16T06:50:07;11.00;99.90
20416;DHT22;10367;52.202;5.996;2022-09-16T06:52:36;11.10;99.90
20416;DHT22;10367;52.202;5.996;2022-09-16T06:55:05;11.20;99.90
20416;DHT22;10367;52.202;5.996;2022-09-16T06:57:35;11.20;99.90
20416;DHT22;10367;52.202;5.996;2022-09-16T07:00:05;11.30;99.90
20416;DHT22;10367;52.202;5.996;2022-09-16T07:02:34;11.40;99.90
20416;DHT22;10367;52.202;5.996;2022-09-16T07:05:03;11.60;99.90
20416;DHT22;10367;52.202;5.996;2022-09-16T07:07:32;11.70;99.90
20416;DHT22;10367;52.202;5.996;2022-09-16T07:10:03;11.80;99.90
20416;DHT22;10367;52.202;5.996;2022-09-16T07:12:31;11.90;99.90
20416;DHT22;10367;52.202;5.996;2022-09-16T07:15:01;12.00;99.90
20416;DHT22;10367;52.202;5.996;2022-09-16T07:17:30;12.00;99.90
20416;DHT22;10367;52.202;5.996;2022-09-16T07:19:59;12.20;99.90
20416;DHT22;10367;52.202;5.996;2022-09-16T07:22:30;12.50;99.90
20416;DHT22;10367;52.202;5.996;2022-09-16T07:24:58;12.80;99.90
20416;DHT22;10367;52.202;5.996;2022-09-16T07:27:28;12.90;99.90
20416;DHT22;10367;52.202;5.996;2022-09-16T07:29:58;12.90;99.90
20416;DHT22;10367;52.202;5.996;2022-09-16T07:32:32;12.90;99.90
20416;DHT22;10367;52.202;5.996;2022-09-16T07:35:00;12.70;99.90
20416;DHT22;10367;52.202;5.996;2022-09-16T07:37:29;12.60;99.90
20416;DHT22;10367;52.202;5.996;2022-09-16T07:39:58;12.50;99.90
20416;DHT22;10367;52.202;5.996;2022-09-16T07:42:28;12.50;99.90
20416;DHT22;10367;52.202;5.996;2022-09-16T07:44:56;12.60;99.90
20416;DHT22;10367;52.202;5.996;2022-09-16T07:47:25;12.60;99.90
20416;DHT22;10367;52.202;5.996;2022-09-16T07:49:55;12.70;99.90
20416;DHT22;10367;52.202;5.996;2022-09-16T07:52:24;12.70;99.90
20416;DHT22;10367;52.202;5.996;2022-09-16T07:54:55;12.80;99.90
20416;DHT22;10367;52.202;5.996;2022-09-16T07:57:24;12.80;99.90
20416;DHT22;10367;52.202;5.996;2022-09-16T07:59:52;12.90;99.90
20416;DHT22;10367;52.202;5.996;2022-09-16T08:02:21;13.00;99.90
20416;DHT22;10367;52.202;5.996;2022-09-16T08:04:50;13.10;99.90
20416;DHT22;10367;52.202;5.996;2022-09-16T08:07:20;13.10;99.90
20416;DHT22;10367;52.202;5.996;2022-09-16T08:09:49;13.20;99.90
20416;DHT22;10367;52.202;5.996;2022-09-16T08:12:19;13.20;99.90
20416;DHT22;10367;52.202;5.996;2022-09-16T08:14:47;13.30;99.90
20416;DHT22;10367;52.202;5.996;2022-09-16T08:17:16;13.40;99.90
20416;DHT22;10367;52.202;5.996;2022-09-16T08:19:44;13.70;99.90
20416;DHT22;10367;52.202;5.996;2022-09-16T08:22:14;13.70;99.90
20416;DHT22;10367;52.202;5.996;2022-09-16T08:24:44;13.60;99.90
20416;DHT22;10367;52.202;5.996;2022-09-16T08:27:13;13.60;99.90
20416;DHT22;10367;52.202;5.996;2022-09-16T08:29:42;13.70;99.90
20416;DHT22;10367;52.202;5.996;2022-09-16T08:32:10;13.70;99.90
20416;DHT22;10367;52.202;5.996;2022-09-16T08:34:39;13.80;99.90
20416;DHT22;10367;52.202;5.996;2022-09-16T08:37:08;14.00;99.90
20416;DHT22;10367;52.202;5.996;2022-09-16T08:39:36;13.90;99.90
20416;DHT22;10367;52.202;5.996;2022-09-16T08:42:33;14.20;99.90
20416;DHT22;10367;52.202;5.996;2022-09-16T08:45:17;14.40;99.90
20416;DHT22;10367;52.202;5.996;2022-09-16T08:47:56;14.60;99.90
20416;DHT22;10367;52.202;5.996;2022-09-16T08:50:31;14.70;99.90
20416;DHT22;10367;52.202;5.996;2022-09-16T08:53:04;14.70;99.90
20416;DHT22;10367;52.202;5.996;2022-09-16T08:55:36;14.70;99.90
20416;DHT22;10367;52.202;5.996;2022-09-16T08:58:13;14.60;99.90
20416;DHT22;10367;52.202;5.996;2022-09-16T09:00:43;14.60;99.90
20416;DHT22;10367;52.202;5.996;2022-09-16T09:03:18;14.70;99.90
20416;DHT22;10367;52.202;5.996;2022-09-16T09:05:51;14.70;99.90
20416;DHT22;10367;52.202;5.996;2022-09-16T09:08:29;14.70;99.90
20416;DHT22;10367;52.202;5.996;2022-09-16T09:11:06;14.80;99.90
20416;DHT22;10367;52.202;5.996;2022-09-16T09:13:54;14.70;99.90
20416;DHT22;10367;52.202;5.996;2022-09-16T09:16:33;14.70;99.90
20416;DHT22;10367;52.202;5.996;2022-09-16T09:19:12;14.90;99.90
20416;DHT22;10367;52.202;5.996;2022-09-16T09:21:50;15.00;99.90
20416;DHT22;10367;52.202;5.996;2022-09-16T09:24:35;15.10;99.90
20416;DHT22;10367;52.202;5.996;2022-09-16T09:27:12;15.20;99.90
20416;DHT22;10367;52.202;5.996;2022-09-16T09:29:51;15.50;99.90
20416;DHT22;10367;52.202;5.996;2022-09-16T09:32:29;15.90;99.90
20416;DHT22;10367;52.202;5.996;2022-09-16T09:35:26;15.80;99.90
20416;DHT22;10367;52.202;5.996;2022-09-16T09:38:30;15.60;99.90
20416;DHT22;10367;52.202;5.996;2022-09-16T09:41:07;15.70;99.90
20416;DHT22;10367;52.202;5.996;2022-09-16T09:43:40;15.50;99.90
20416;DHT22;10367;52.202;5.996;2022-09-16T09:46:16;15.60;99.90
20416;DHT22;10367;52.202;5.996;2022-09-16T09:48:48;15.80;99.90
20416;DHT22;10367;52.202;5.996;2022-09-16T09:51:24;16.00;99.90
20416;DHT22;10367;52.202;5.996;2022-09-16T09:53:59;16.00;99.90
20416;DHT22;10367;52.202;5.996;2022-09-16T09:56:32;16.00;99.90
20416;DHT22;10367;52.202;5.996;2022-09-16T09:59:07;16.10;99.90
20416;DHT22;10367;52.202;5.996;2022-09-16T10:01:41;16.10;99.90
20416;DHT22;10367;52.202;5.996;2022-09-16T10:04:12;16.00;99.90
20416;DHT22;10367;52.202;5.996;2022-09-16T10:06:42;16.10;99.90
20416;DHT22;10367;52.202;5.996;2022-09-16T10:09:14;16.10;99.90
20416;DHT22;10367;52.202;5.996;2022-09-16T10:11:47;16.00;99.90
20416;DHT22;10367;52.202;5.996;2022-09-16T10:14:23;15.50;99.90
20416;DHT22;10367;52.202;5.996;2022-09-16T10:16:54;15.30;99.90
20416;DHT22;10367;52.202;5.996;2022-09-16T10:19:23;15.10;99.90
20416;DHT22;10367;52.202;5.996;2022-09-16T10:21:54;15.00;99.90
20416;DHT22;10367;52.202;5.996;2022-09-16T10:24:30;15.10;99.90
20416;DHT22;10367;52.202;5.996;2022-09-16T10:27:00;15.10;99.90
20416;DHT22;10367;52.202;5.996;2022-09-16T10:29:29;15.30;99.90
20416;DHT22;10367;52.202;5.996;2022-09-16T10:32:00;15.30;99.90
20416;DHT22;10367;52.202;5.996;2022-09-16T10:34:35;15.60;99.90
20416;DHT22;10367;52.202;5.996;2022-09-16T10:37:15;15.90;99.90
20416;DHT22;10367;52.202;5.996;2022-09-16T10:39:49;16.20;99.90
20416;DHT22;10367;52.202;5.996;2022-09-16T10:42:21;16.50;99.90
20416;DHT22;10367;52.202;5.996;2022-09-16T10:44:51;16.90;99.90
20416;DHT22;10367;52.202;5.996;2022-09-16T10:47:24;17.30;99.90
20416;DHT22;10367;52.202;5.996;2022-09-16T10:49:55;17.70;99.90
20416;DHT22;10367;52.202;5.996;2022-09-16T10:52:26;18.00;99.90
20416;DHT22;10367;52.202;5.996;2022-09-16T10:54:56;18.20;99.90
20416;DHT22;10367;52.202;5.996;2022-09-16T10:57:27;18.20;99.90
20416;DHT22;10367;52.202;5.996;2022-09-16T10:59:58;18.10;99.90
20416;DHT22;10367;52.202;5.996;2022-09-16T11:02:44;17.70;99.90
20416;DHT22;10367;52.202;5.996;2022-09-16T11:05:17;17.50;99.90
20416;DHT22;10367;52.202;5.996;2022-09-16T11:08:01;17.60;99.90
20416;DHT22;10367;52.202;5.996;2022-09-16T11:10:38;18.00;99.90
20416;DHT22;10367;52.202;5.996;2022-09-16T11:13:19;17.90;99.90
20416;DHT22;10367;52.202;5.996;2022-09-16T11:16:03;18.00;99.90
20416;DHT22;10367;52.202;5.996;2022-09-16T11:18:47;17.60;99.90
20416;DHT22;10367;52.202;5.996;2022-09-16T11:21:33;17.30;99.90
20416;DHT22;10367;52.202;5.996;2022-09-16T11:24:19;16.90;99.90
20416;DHT22;10367;52.202;5.996;2022-09-16T11:26:57;16.90;99.90
20416;DHT22;10367;52.202;5.996;2022-09-16T11:29:43;16.80;99.90
20416;DHT22;10367;52.202;5.996;2022-09-16T11:32:21;16.70;99.90
20416;DHT22;10367;52.202;5.996;2022-09-16T11:35:02;16.70;99.90
20416;DHT22;10367;52.202;5.996;2022-09-16T11:37:41;16.80;99.90
20416;DHT22;10367;52.202;5.996;2022-09-16T11:40:23;16.90;99.90
20416;DHT22;10367;52.202;5.996;2022-09-16T11:43:00;17.00;99.90
20416;DHT22;10367;52.202;5.996;2022-09-16T11:45:42;17.30;99.90
20416;DHT22;10367;52.202;5.996;2022-09-16T11:48:31;17.50;99.90
20416;DHT22;10367;52.202;5.996;2022-09-16T11:51:09;17.80;99.90
20416;DHT22;10367;52.202;5.996;2022-09-16T11:56:41;18.10;99.90
20416;DHT22;10367;52.202;5.996;2022-09-16T11:59:17;18.20;99.90
20416;DHT22;10367;52.202;5.996;2022-09-16T12:01:51;18.30;99.90
20416;DHT22;10367;52.202;5.996;2022-09-16T12:04:25;18.50;99.90
20416;DHT22;10367;52.202;5.996;2022-09-16T12:07:00;18.60;99.90
20416;DHT22;10367;52.202;5.996;2022-09-16T12:09:35;18.80;99.90
20416;DHT22;10367;52.202;5.996;2022-09-16T12:12:10;18.60;99.90
20416;DHT22;10367;52.202;5.996;2022-09-16T12:14:42;18.50;99.90
20416;DHT22;10367;52.202;5.996;2022-09-16T12:17:16;18.50;99.90
20416;DHT22;10367;52.202;5.996;2022-09-16T12:19:50;18.80;99.90
20416;DHT22;10367;52.202;5.996;2022-09-16T12:22:24;18.90;99.90
20416;DHT22;10367;52.202;5.996;2022-09-16T12:24:59;19.20;99.90
20416;DHT22;10367;52.202;5.996;2022-09-16T12:27:37;19.10;99.90
20416;DHT22;10367;52.202;5.996;2022-09-16T12:30:14;19.20;99.90
20416;DHT22;10367;52.202;5.996;2022-09-16T12:32:53;19.20;99.90
20416;DHT22;10367;52.202;5.996;2022-09-16T12:35:29;18.90;99.90
20416;DHT22;10367;52.202;5.996;2022-09-16T12:38:01;17.80;99.90
20416;DHT22;10367;52.202;5.996;2022-09-16T12:40:36;15.80;99.90
20416;DHT22;10367;52.202;5.996;2022-09-16T12:43:32;14.90;99.90
20416;DHT22;10367;52.202;5.996;2022-09-16T12:46:33;14.70;99.90
20416;DHT22;10367;52.202;5.996;2022-09-16T12:49:24;15.10;99.90
20416;DHT22;10367;52.202;5.996;2022-09-16T12:52:21;15.80;99.90
20416;DHT22;10367;52.202;5.996;2022-09-16T12:55:29;16.20;99.90
20416;DHT22;10367;52.202;5.996;2022-09-16T12:58:24;16.80;99.90
20416;DHT22;10367;52.202;5.996;2022-09-16T13:01:02;17.30;99.90
20416;DHT22;10367;52.202;5.996;2022-09-16T13:03:38;17.50;99.90
20416;DHT22;10367;52.202;5.996;2022-09-16T13:06:19;17.40;99.90
20416;DHT22;10367;52.202;5.996;2022-09-16T13:08:49;17.60;99.90
20416;DHT22;10367;52.202;5.996;2022-09-16T13:11:22;17.90;99.90
20416;DHT22;10367;52.202;5.996;2022-09-16T13:14:19;17.90;99.90
20416;DHT22;10367;52.202;5.996;2022-09-16T13:16:53;18.10;99.90
20416;DHT22;10367;52.202;5.996;2022-09-16T13:19:38;18.10;99.90
20416;DHT22;10367;52.202;5.996;2022-09-16T13:22:18;17.60;99.90
20416;DHT22;10367;52.202;5.996;2022-09-16T13:24:52;17.60;99.90
20416;DHT22;10367;52.202;5.996;2022-09-16T13:27:30;17.40;99.90
20416;DHT22;10367;52.202;5.996;2022-09-16T13:30:15;17.10;99.90
20416;DHT22;10367;52.202;5.996;2022-09-16T13:33:01;16.90;99.90
20416;DHT22;10367;52.202;5.996;2022-09-16T13:35:39;16.50;99.90
20416;DHT22;10367;52.202;5.996;2022-09-16T13:38:24;15.80;99.90
20416;DHT22;10367;52.202;5.996;2022-09-16T13:40:57;15.10;99.90
20416;DHT22;10367;52.202;5.996;2022-09-16T13:43:33;14.20;99.90
20416;DHT22;10367;52.202;5.996;2022-09-16T13:46:07;13.30;99.90
20416;DHT22;10367;52.202;5.996;2022-09-16T13:48:42;13.00;99.90
20416;DHT22;10367;52.202;5.996;2022-09-16T13:51:17;13.60;99.90
20416;DHT22;10367;52.202;5.996;2022-09-16T13:53:47;14.30;99.90
20416;DHT22;10367;52.202;5.996;2022-09-16T13:56:34;15.00;99.90
20416;DHT22;10367;52.202;5.996;2022-09-16T13:59:19;15.90;99.90
20416;DHT22;10367;52.202;5.996;2022-09-16T14:01:55;16.50;99.90
20416;DHT22;10367;52.202;5.996;2022-09-16T14:04:40;16.90;99.90
20416;DHT22;10367;52.202;5.996;2022-09-16T14:07:25;17.30;99.90
20416;DHT22;10367;52.202;5.996;2022-09-16T14:09:59;17.50;99.90
20416;DHT22;10367;52.202;5.996;2022-09-16T14:12:38;17.20;99.90
20416;DHT22;10367;52.202;5.996;2022-09-16T14:15:13;16.30;99.90
20416;DHT22;10367;52.202;5.996;2022-09-16T14:17:46;15.50;99.90
20416;DHT22;10367;52.202;5.996;2022-09-16T14:20:20;15.10;99.90
20416;DHT22;10367;52.202;5.996;2022-09-16T14:22:59;15.00;99.90
20416;DHT22;10367;52.202;5.996;2022-09-16T14:25:31;14.40;99.90
20416;DHT22;10367;52.202;5.996;2022-09-16T14:28:22;14.30;99.90
20416;DHT22;10367;52.202;5.996;2022-09-16T14:30:55;14.50;99.90
20416;DHT22;10367;52.202;5.996;2022-09-16T14:33:28;14.90;99.90
20416;DHT22;10367;52.202;5.996;2022-09-16T14:35:58;15.40;99.90
20416;DHT22;10367;52.202;5.996;2022-09-16T14:38:32;15.90;99.90
20416;DHT22;10367;52.202;5.996;2022-09-16T14:41:20;16.20;99.90
20416;DHT22;10367;52.202;5.996;2022-09-16T14:43:50;16.30;99.90
20416;DHT22;10367;52.202;5.996;2022-09-16T14:46:20;16.20;99.90
20416;DHT22;10367;52.202;5.996;2022-09-16T14:48:49;16.20;99.90
20416;DHT22;10367;52.202;5.996;2022-09-16T14:51:21;16.30;99.90
20416;DHT22;10367;52.202;5.996;2022-09-16T14:53:55;16.50;99.90
20416;DHT22;10367;52.202;5.996;2022-09-16T14:56:40;16.50;99.90
20416;DHT22;10367;52.202;5.996;2022-09-16T14:59:10;16.70;99.90
20416;DHT22;10367;52.202;5.996;2022-09-16T15:01:41;16.80;99.90
20416;DHT22;10367;52.202;5.996;2022-09-16T15:04:17;16.80;99.90
20416;DHT22;10367;52.202;5.996;2022-09-16T15:06:51;16.70;99.90
20416;DHT22;10367;52.202;5.996;2022-09-16T15:09:25;16.90;99.90
20416;DHT22;10367;52.202;5.996;2022-09-16T15:11:58;16.90;99.90
20416;DHT22;10367;52.202;5.996;2022-09-16T15:14:27;17.10;99.90
20416;DHT22;10367;52.202;5.996;2022-09-16T15:17:00;17.10;99.90
20416;DHT22;10367;52.202;5.996;2022-09-16T15:19:32;17.10;99.90
20416;DHT22;10367;52.202;5.996;2022-09-16T15:22:03;17.10;99.90
20416;DHT22;10367;52.202;5.996;2022-09-16T15:24:39;17.20;99.90
20416;DHT22;10367;52.202;5.996;2022-09-16T15:27:08;17.50;99.90
20416;DHT22;10367;52.202;5.996;2022-09-16T15:29:51;17.60;99.90
20416;DHT22;10367;52.202;5.996;2022-09-16T15:32:23;17.70;99.90
20416;DHT22;10367;52.202;5.996;2022-09-16T15:35:09;17.70;99.90
20416;DHT22;10367;52.202;5.996;2022-09-16T15:37:39;17.30;99.90
20416;DHT22;10367;52.202;5.996;2022-09-16T15:45:56;15.20;99.90
20416;DHT22;10367;52.202;5.996;2022-09-16T15:48:30;15.10;99.90
20416;DHT22;10367;52.202;5.996;2022-09-16T15:51:03;14.90;99.90
20416;DHT22;10367;52.202;5.996;2022-09-16T15:53:42;14.70;99.90
20416;DHT22;10367;52.202;5.996;2022-09-16T15:56:25;14.60;99.90
20416;DHT22;10367;52.202;5.996;2022-09-16T15:58:58;15.00;99.90
20416;DHT22;10367;52.202;5.996;2022-09-16T16:01:40;15.20;99.90
20416;DHT22;10367;52.202;5.996;2022-09-16T16:04:25;15.50;99.90
20416;DHT22;10367;52.202;5.996;2022-09-16T16:06:56;15.70;99.90
20416;DHT22;10367;52.202;5.996;2022-09-16T16:09:35;15.80;99.90
20416;DHT22;10367;52.202;5.996;2022-09-16T16:12:07;15.60;99.90
20416;DHT22;10367;52.202;5.996;2022-09-16T16:14:37;15.60;99.90
20416;DHT22;10367;52.202;5.996;2022-09-16T16:17:08;15.60;99.90
20416;DHT22;10367;52.202;5.996;2022-09-16T16:19:43;15.50;99.90
20416;DHT22;10367;52.202;5.996;2022-09-16T16:22:12;15.40;99.90
20416;DHT22;10367;52.202;5.996;2022-09-16T16:24:42;15.60;99.90
20416;DHT22;10367;52.202;5.996;2022-09-16T16:27:11;15.70;99.90
20416;DHT22;10367;52.202;5.996;2022-09-16T16:29:40;15.70;99.90